Time;durP1;ratioP1;P1;durP2;ratioP2;P2;SDS_P1;SDS_P2;PMS_P1;PMS_P2;Temp;Humidity;BMP_temperature;BMP_pressure;BME280_temperature;BME280_humidity;BME280_pressure;Samples;Min_cycle;Max_cycle;Signal;HPM_P1;HPM_P2
2023/09/24 00:01:26;;;;;;;9.38;6.38;;;;;;;10.00;100.00;102068.41;5067541;28;20027;-75
2023/09/24 00:03:51;;;;;;;9.27;6.10;;;;;;;10.07;100.00;102074.00;5068836;28;20123;-75
2023/09/24 00:06:17;;;;;;;8.20;6.40;;;;;;;10.04;100.00;102074.34;5070823;28;20033;-74
2023/09/24 00:08:42;;;;;;;12.68;6.40;;;;;;;10.06;100.00;102084.94;5065926;28;20021;-75
2023/09/24 00:11:11;;;;;;;9.18;6.43;;;;;;;10.00;100.00;102083.72;5062335;28;20037;-75
2023/09/24 00:13:38;;;;;;;10.00;6.95;;;;;;;9.88;100.00;102090.41;5071503;28;20187;-75
2023/09/24 00:16:07;;;;;;;8.73;6.38;;;;;;;9.92;100.00;102092.63;5070917;28;20028;-75
2023/09/24 00:18:33;;;;;;;10.32;6.55;;;;;;;9.98;100.00;102088.44;5074958;28;20029;-75
2023/09/24 00:20:59;;;;;;;9.30;6.60;;;;;;;9.95;100.00;102096.81;5065081;28;20045;-75
2023/09/24 00:23:25;;;;;;;7.45;6.60;;;;;;;10.01;100.00;102090.81;5071162;28;20105;-75
2023/09/24 00:25:50;;;;;;;8.73;6.65;;;;;;;9.96;100.00;102090.44;5065807;28;20472;-75
2023/09/24 00:28:16;;;;;;;9.30;6.70;;;;;;;9.97;100.00;102101.03;5071659;28;20035;-74
2023/09/24 00:30:42;;;;;;;8.55;6.78;;;;;;;9.97;100.00;102105.56;5067118;28;20080;-74
2023/09/24 00:33:08;;;;;;;9.63;6.28;;;;;;;9.94;100.00;102104.06;5062547;28;20054;-74
2023/09/24 00:35:34;;;;;;;9.43;6.68;;;;;;;9.96;100.00;102111.97;5070680;28;20020;-74
2023/09/24 00:37:59;;;;;;;9.75;7.05;;;;;;;9.90;100.00;102113.44;5067531;28;20468;-74
2023/09/24 00:40:25;;;;;;;10.75;7.00;;;;;;;9.84;100.00;102114.94;5064816;28;20045;-74
2023/09/24 00:42:50;;;;;;;9.85;7.15;;;;;;;9.88;100.00;102109.25;5068326;28;20032;-73
2023/09/24 00:45:16;;;;;;;10.57;7.18;;;;;;;9.85;100.00;102110.41;5066812;28;20401;-73
2023/09/24 00:47:45;;;;;;;9.68;7.07;;;;;;;9.79;100.00;102119.94;5066831;28;20040;-73
2023/09/24 00:50:12;;;;;;;9.00;7.57;;;;;;;9.69;100.00;102116.56;5065381;28;20029;-73
2023/09/24 00:52:38;;;;;;;8.30;7.25;;;;;;;9.74;100.00;102114.19;5060070;28;20028;-73
2023/09/24 00:55:04;;;;;;;10.32;7.95;;;;;;;9.70;100.00;102113.69;5064947;28;20036;-73
2023/09/24 00:57:33;;;;;;;11.60;7.85;;;;;;;9.68;100.00;102121.06;5071641;28;20115;-73
2023/09/24 00:59:59;;;;;;;9.50;7.82;;;;;;;9.70;100.00;102115.56;5062704;28;20029;-73
2023/09/24 01:02:24;;;;;;;9.70;7.30;;;;;;;9.71;100.00;102118.06;5070625;28;20041;-73
2023/09/24 01:04:53;;;;;;;8.10;7.00;;;;;;;9.67;100.00;102118.56;5073734;28;20024;-74
2023/09/24 01:07:18;;;;;;;11.07;6.80;;;;;;;9.59;100.00;102127.41;5045742;28;20044;-73
2023/09/24 01:09:44;;;;;;;10.20;7.57;;;;;;;9.64;100.00;102124.25;5066118;28;20036;-73
2023/09/24 01:12:22;;;;;;;11.38;7.97;;;;;;;9.63;100.00;102126.06;5065682;28;20066;-73
2023/09/24 01:14:48;;;;;;;9.48;7.55;;;;;;;9.63;100.00;102122.56;5068952;28;20032;-73
2023/09/24 01:17:14;;;;;;;10.23;7.18;;;;;;;9.64;100.00;102124.25;5070411;28;20135;-73
2023/09/24 01:19:40;;;;;;;9.43;7.47;;;;;;;9.62;100.00;102118.19;5070076;28;20098;-73
2023/09/24 01:22:05;;;;;;;11.73;7.35;;;;;;;9.61;100.00;102117.34;5071107;28;20115;-73
2023/09/24 01:24:31;;;;;;;9.02;7.18;;;;;;;9.62;100.00;102119.00;5072072;28;20059;-73
2023/09/24 01:26:57;;;;;;;9.82;7.65;;;;;;;9.59;100.00;102113.97;5070138;28;20029;-73
2023/09/24 01:29:23;;;;;;;11.30;7.50;;;;;;;9.52;100.00;102111.09;5063298;28;20036;-73
2023/09/24 01:31:49;;;;;;;10.10;7.18;;;;;;;9.48;100.00;102120.47;5061326;28;20025;-73
2023/09/24 01:34:15;;;;;;;10.85;7.32;;;;;;;9.46;100.00;102114.41;5063768;28;20033;-73
2023/09/24 01:36:41;;;;;;;9.90;7.65;;;;;;;9.47;100.00;102118.78;5069990;28;20177;-73
2023/09/24 01:39:06;;;;;;;12.07;8.07;;;;;;;9.48;100.00;102120.47;5066094;28;20029;-74
2023/09/24 01:41:32;;;;;;;9.68;7.53;;;;;;;9.46;100.00;102117.09;5068836;28;20063;-74
2023/09/24 01:43:57;;;;;;;9.38;7.78;;;;;;;9.46;100.00;102122.47;5067735;28;20055;-74
2023/09/24 01:46:23;;;;;;;9.40;7.47;;;;;;;9.39;100.00;102124.06;5073436;28;20033;-74
2023/09/24 01:48:54;;;;;;;11.40;7.75;;;;;;;9.36;100.00;102122.56;5070467;28;20028;-74
2023/09/24 01:51:20;;;;;;;14.63;7.80;;;;;;;9.36;100.00;102121.69;5069308;28;20047;-74
2023/09/24 01:53:48;;;;;;;12.70;7.18;;;;;;;9.32;100.00;102125.72;5071013;28;20480;-74
2023/09/24 01:56:14;;;;;;;9.15;7.32;;;;;;;9.30;100.00;102128.56;5070231;28;20024;-74
2023/09/24 01:58:39;;;;;;;12.63;8.10;;;;;;;9.30;100.00;102133.09;5072207;28;20480;-74
2023/09/24 02:01:05;;;;;;;8.60;7.30;;;;;;;9.27;100.00;102130.72;5065091;28;20953;-74
2023/09/24 02:03:30;;;;;;;9.73;7.57;;;;;;;9.20;100.00;102133.19;5071580;28;20024;-74
2023/09/24 02:05:55;;;;;;;9.63;7.88;;;;;;;9.21;100.00;102141.09;5070899;28;20037;-74
2023/09/24 02:08:21;;;;;;;12.27;7.50;;;;;;;9.18;100.00;102127.13;5071793;28;20040;-74
2023/09/24 02:10:47;;;;;;;12.88;8.18;;;;;;;9.15;100.00;102122.91;5068038;28;20017;-74
2023/09/24 02:13:12;;;;;;;11.13;7.60;;;;;;;9.11;100.00;102124.22;5065034;28;20052;-74
2023/09/24 02:15:38;;;;;;;11.85;8.65;;;;;;;9.13;100.00;102124.06;5061063;28;20112;-74
2023/09/24 02:18:04;;;;;;;12.05;8.70;;;;;;;9.05;100.00;102124.84;5069269;28;20032;-74
2023/09/24 02:22:59;;;;;;;13.52;8.73;;;;;;;9.05;100.00;102146.31;5065870;28;20044;-73
2023/09/24 02:25:35;;;;;;;13.05;9.18;;;;;;;9.02;100.00;102150.19;5062021;28;20028;-73
2023/09/24 02:28:00;;;;;;;15.95;9.50;;;;;;;8.94;100.00;102142.91;5067849;28;20111;-73
2023/09/24 02:30:29;;;;;;;14.13;9.75;;;;;;;8.97;100.00;102139.03;5068519;28;20424;-73
2023/09/24 02:32:55;;;;;;;15.70;10.00;;;;;;;8.97;100.00;102141.72;5064480;28;20037;-73
2023/09/24 02:35:20;;;;;;;15.70;10.00;;;;;;;8.92;100.00;102144.03;5072490;28;20135;-73
2023/09/24 02:37:47;;;;;;;14.73;10.30;;;;;;;8.86;100.00;102142.81;5067842;28;20028;-73
2023/09/24 02:40:22;;;;;;;13.02;10.15;;;;;;;8.82;100.00;102141.44;5058982;28;20572;-73
2023/09/24 02:42:51;;;;;;;14.73;10.10;;;;;;;8.73;100.00;102142.34;5065549;28;20587;-73
2023/09/24 02:45:17;;;;;;;13.55;9.73;;;;;;;8.62;100.00;102141.59;5065152;28;20040;-73
2023/09/24 02:47:43;;;;;;;12.48;9.95;;;;;;;8.56;100.00;102152.91;5062499;28;20055;-73
2023/09/24 02:50:14;;;;;;;15.70;11.07;;;;;;;8.45;100.00;102148.56;5070670;28;20036;-73
2023/09/24 02:52:43;;;;;;;15.50;10.50;;;;;;;8.48;100.00;102152.81;5068248;28;20158;-73
2023/09/24 02:55:10;;;;;;;15.93;10.35;;;;;;;8.44;100.00;102159.47;5071273;28;20046;-74
2023/09/24 02:57:37;;;;;;;15.77;10.80;;;;;;;8.37;100.00;102158.38;5068961;28;20069;-73
2023/09/24 03:00:12;;;;;;;12.65;9.13;;;;;;;8.24;100.00;102154.22;5070577;28;20040;-73
2023/09/24 03:02:39;;;;;;;16.88;9.85;;;;;;;8.23;100.00;102163.25;5070409;28;20107;-73
2023/09/24 03:05:06;;;;;;;13.82;9.95;;;;;;;8.32;100.00;102162.34;5065526;28;20020;-73
2023/09/24 03:07:33;;;;;;;15.32;10.13;;;;;;;8.34;100.00;102164.91;5070185;28;20051;-73
2023/09/24 03:09:58;;;;;;;15.25;10.27;;;;;;;8.29;100.00;102173.41;5069428;28;20488;-73
2023/09/24 03:12:24;;;;;;;14.95;9.82;;;;;;;8.30;100.00;102175.06;5067851;28;20025;-73
2023/09/24 03:14:49;;;;;;;15.63;10.13;;;;;;;8.19;100.00;102183.31;5066940;28;20027;-74
2023/09/24 03:17:15;;;;;;;13.05;9.68;;;;;;;8.21;100.00;102175.13;5069904;28;20016;-73
2023/09/24 03:19:40;;;;;;;16.13;10.45;;;;;;;8.16;100.00;102172.88;5069422;28;20024;-73
2023/09/24 03:22:05;;;;;;;16.23;10.15;;;;;;;8.09;100.00;102180.66;5066479;28;20414;-73
2023/09/24 03:24:31;;;;;;;16.63;11.02;;;;;;;8.16;100.00;102191.66;5069755;28;20033;-73
2023/09/24 03:26:56;;;;;;;;;;;;;;;8.14;100.00;102189.13;5069422;28;20086;-73
2023/09/24 03:29:21;;;;;;;14.23;9.77;;;;;;;8.12;100.00;102193.78;5065710;28;20281;-73
2023/09/24 03:31:50;;;;;;;17.50;11.35;;;;;;;8.23;100.00;102195.44;5063698;28;20447;-73
2023/09/24 03:34:15;;;;;;;15.85;11.23;;;;;;;8.27;100.00;102190.63;5063271;28;20062;-73
2023/09/24 03:36:41;;;;;;;18.45;11.38;;;;;;;8.30;100.00;102193.84;5070052;28;20028;-73
2023/09/24 03:39:08;;;;;;;18.80;11.27;;;;;;;8.29;100.00;102194.88;5065671;28;20021;-73
2023/09/24 03:41:33;;;;;;;16.30;11.30;;;;;;;8.32;100.00;102199.91;5065266;28;20045;-73
2023/09/24 03:43:59;;;;;;;16.75;11.23;;;;;;;8.31;100.00;102203.56;5068082;28;20033;-73
2023/09/24 03:46:24;;;;;;;16.67;11.23;;;;;;;8.19;100.00;102200.28;5065197;28;20436;-74
2023/09/24 03:48:50;;;;;;;17.80;11.40;;;;;;;8.14;100.00;102207.03;5067819;28;20017;-74
2023/09/24 03:51:15;;;;;;;;;;;;;;;8.16;100.00;102205.06;5062719;28;20025;-74
2023/09/24 03:53:41;;;;;;;15.70;10.40;;;;;;;8.18;100.00;102208.44;5064651;28;20019;-75
2023/09/24 03:56:07;;;;;;;17.25;11.40;;;;;;;8.24;100.00;102213.22;5067263;28;20031;-75
2023/09/24 03:58:33;;;;;;;16.90;12.20;;;;;;;8.20;100.00;102203.78;5068245;28;20029;-75
2023/09/24 04:00:58;;;;;;;16.88;10.80;;;;;;;8.17;100.00;102201.38;5171219;23;20046;-76
2023/09/24 04:03:26;;;;;;;15.75;11.52;;;;;;;8.11;100.00;102204.69;5064393;28;20869;-76
2023/09/24 04:05:52;;;;;;;16.90;11.93;;;;;;;8.17;100.00;102206.75;5063885;28;20037;-76
2023/09/24 04:08:38;;;;;;;16.27;11.43;;;;;;;8.16;100.00;102205.06;5067109;28;20033;-76
2023/09/24 04:11:11;;;;;;;15.13;10.50;;;;;;;8.00;100.00;102205.69;5066728;28;20044;-76
2023/09/24 04:13:38;;;;;;;13.35;10.75;;;;;;;8.05;100.00;102208.78;5063108;28;20024;-76
2023/09/24 04:16:12;;;;;;;15.80;11.55;;;;;;;8.06;100.00;102217.69;5066883;28;20476;-75
2023/09/24 04:18:44;;;;;;;16.40;11.88;;;;;;;7.90;100.00;102227.19;5063717;28;20025;-75
2023/09/24 04:21:16;;;;;;;19.30;12.57;;;;;;;7.83;100.00;102220.69;5063831;28;20028;-76
2023/09/24 04:23:42;;;;;;;19.95;13.05;;;;;;;7.85;100.00;102218.72;5065722;28;20032;-76
2023/09/24 04:26:09;;;;;;;20.35;13.80;;;;;;;7.86;100.00;102223.09;5066232;28;20029;-74
2023/09/24 04:28:39;;;;;;;20.58;12.77;;;;;;;7.84;100.00;102228.63;5074059;28;20037;-77
2023/09/24 04:31:05;;;;;;;16.85;12.15;;;;;;;7.86;100.00;102228.47;5075793;28;20165;-74
2023/09/24 04:33:30;;;;;;;20.23;12.65;;;;;;;7.87;100.00;102232.84;5075008;28;20048;-74
2023/09/24 04:35:57;;;;;;;19.88;12.43;;;;;;;7.97;100.00;102236.31;5066410;28;20024;-76
2023/09/24 04:38:29;;;;;;;21.35;12.63;;;;;;;7.88;100.00;102235.34;5062593;28;20025;-75
2023/09/24 04:40:55;;;;;;;20.27;12.07;;;;;;;7.83;100.00;102236.78;5066284;28;20419;-75
2023/09/24 04:43:23;;;;;;;20.20;12.23;;;;;;;7.93;100.00;102239.44;5071876;28;20036;-75
2023/09/24 04:45:49;;;;;;;21.88;11.65;;;;;;;7.95;100.00;102237.47;5063136;28;20424;-75
2023/09/24 04:48:14;;;;;;;24.60;12.25;;;;;;;7.98;100.00;102251.41;5069568;28;20058;-75
2023/09/24 04:51:14;;;;;;;22.08;12.43;;;;;;;7.97;100.00;102247.03;5069331;28;20058;-75
2023/09/24 04:53:42;;;;;;;17.27;11.85;;;;;;;7.93;100.00;102253.72;5029762;28;20124;-75
2023/09/24 04:56:11;;;;;;;20.75;12.65;;;;;;;7.88;100.00;102250.59;5062719;28;20066;-75
2023/09/24 04:58:46;;;;;;;24.50;13.38;;;;;;;7.84;100.00;102250.06;5393114;23;20016;-75
2023/09/24 05:03:43;;;;;;;19.60;12.48;;;;;;;7.83;100.00;102242.16;5077324;23;20180;-75
2023/09/24 05:06:08;;;;;;;20.80;12.55;;;;;;;7.85;100.00;102245.53;5068516;28;20033;-75
2023/09/24 05:08:34;;;;;;;22.60;12.77;;;;;;;7.80;100.00;102248.66;5072163;28;20021;-75
2023/09/24 05:11:13;;;;;;;20.92;13.35;;;;;;;7.81;100.00;102249.47;5070097;28;20048;-74
2023/09/24 05:13:40;;;;;;;24.52;13.55;;;;;;;7.78;100.00;102250.63;5071265;28;20079;-75
2023/09/24 05:16:05;;;;;;;21.60;14.00;;;;;;;7.72;100.00;102254.72;5062372;28;20048;-75
2023/09/24 05:18:33;;;;;;;21.33;12.38;;;;;;;7.69;100.00;102257.69;5071354;28;20081;-75
2023/09/24 05:21:09;;;;;;;25.45;14.05;;;;;;;7.68;100.00;102260.50;5071050;28;20040;-75
2023/09/24 05:23:34;;;;;;;20.30;13.15;;;;;;;7.74;100.00;102255.44;5071758;28;20035;-75
2023/09/24 05:26:00;;;;;;;;;;;;;;;7.75;100.00;102253.59;5071788;28;20024;-75
2023/09/24 05:28:25;;;;;;;19.93;12.93;;;;;;;7.78;100.00;102261.34;5070721;28;19916;-75
2023/09/24 05:30:51;;;;;;;;;;;;;;;7.64;100.00;102270.66;5070813;28;20348;-75
2023/09/24 05:33:35;;;;;;;18.55;12.40;;;;;;;7.67;100.00;102267.72;5071078;28;20302;-75
2023/09/24 05:36:32;;;;;;;20.40;12.93;;;;;;;7.72;100.00;102275.31;5066518;28;20043;-75
2023/09/24 05:39:16;;;;;;;21.70;13.15;;;;;;;7.85;100.00;102272.34;5069599;28;20032;-75
2023/09/24 05:42:12;;;;;;;22.13;12.95;;;;;;;7.85;100.00;102277.72;5066719;28;20020;-75
2023/09/24 05:44:47;;;;;;;20.43;13.23;;;;;;;7.97;100.00;102275.72;5070223;28;20086;-75
2023/09/24 05:57:43;;;;;;;20.83;12.50;;;;;;;8.40;100.00;102286.88;5070480;28;20071;-76
2023/09/24 06:01:01;;;;;;;;;;;;;;;;;;;;;
2023/09/24 06:04:30;;;;;;;28.17;15.60;;;;;;;9.82;100.00;102288.22;5020780;28;20041;-75
2023/09/24 06:06:55;;;;;;;24.83;15.05;;;;;;;10.92;100.00;102287.69;5026871;28;20056;-75
2023/09/24 06:10:14;;;;;;;21.80;13.82;;;;;;;11.16;100.00;102289.59;5025284;28;20033;-75
2023/09/24 06:13:16;;;;;;;12.25;10.25;;;;;;;12.01;100.00;102292.16;5024804;28;20033;-74
2023/09/24 06:16:01;;;;;;;9.18;8.15;;;;;;;12.73;100.00;102288.56;5008686;28;20103;-74
2023/09/24 06:18:29;;;;;;;10.65;7.53;;;;;;;13.08;100.00;102301.75;5024282;28;20029;-75
2023/09/24 06:21:34;;;;;;;9.95;7.15;;;;;;;13.82;93.96;102308.50;5030516;28;20038;-75
2023/09/24 06:24:11;;;;;;;9.60;6.43;;;;;;;14.49;85.51;102318.50;5026813;28;20136;-74
2023/09/24 06:26:43;;;;;;;8.50;6.55;;;;;;;14.89;84.09;102323.63;5027769;28;20106;-77
2023/09/24 06:29:14;;;;;;;9.35;6.38;;;;;;;15.22;77.42;102323.16;5031216;28;20048;-74
2023/09/24 06:31:40;;;;;;;9.68;6.30;;;;;;;16.03;73.15;102321.25;5030248;28;20029;-75
2023/09/24 06:34:06;;;;;;;6.45;5.85;;;;;;;16.46;71.09;102331.13;5031557;28;20363;-74
2023/09/24 06:36:31;;;;;;;8.68;5.82;;;;;;;16.91;69.81;102333.44;5029616;28;20108;-74
2023/09/24 06:39:44;;;;;;;6.68;5.65;;;;;;;17.21;68.39;102339.41;5040451;23;20417;-74
2023/09/24 06:42:12;;;;;;;8.85;5.68;;;;;;;18.43;62.23;102340.34;5008092;28;20055;-74
2023/09/24 06:44:38;;;;;;;8.02;4.70;;;;;;;18.86;60.13;102336.22;5048048;28;20443;-77
2023/09/24 06:47:12;;;;;;;8.65;4.80;;;;;;;19.46;57.67;102348.75;5046674;28;20041;-78
2023/09/24 06:49:50;;;;;;;6.80;4.80;;;;;;;19.50;55.96;102350.81;5049366;28;20075;-78
2023/09/24 06:52:15;;;;;;;5.43;4.88;;;;;;;19.42;56.58;102342.88;5049368;28;20677;-78
2023/09/24 06:54:41;;;;;;;7.20;4.32;;;;;;;19.63;57.18;102354.50;5042560;28;20037;-77
2023/09/24 06:57:32;;;;;;;5.38;4.38;;;;;;;19.94;54.01;102352.84;5050860;28;20029;-81
2023/09/24 07:00:14;;;;;;;9.52;5.07;;;;;;;20.59;52.45;102365.25;5042565;28;20587;-76
2023/09/24 07:02:55;;;;;;;5.15;4.38;;;;;;;20.73;51.52;102368.66;5050050;28;20159;-76
2023/09/24 07:05:36;;;;;;;5.95;4.65;;;;;;;19.64;55.91;102370.69;5050508;28;20043;-76
2023/09/24 07:08:13;;;;;;;5.63;4.18;;;;;;;20.17;54.11;102368.59;5049823;28;20075;-76
2023/09/24 07:14:04;;;;;;;6.10;3.97;;;;;;;21.48;50.96;102381.16;5032544;28;20029;-78
2023/09/24 07:16:29;;;;;;;4.78;4.00;;;;;;;21.78;49.35;102384.97;5045467;28;20078;-73
2023/09/24 07:18:57;;;;;;;6.55;3.80;;;;;;;22.35;47.19;102395.41;5048892;28;20440;-74
2023/09/24 07:21:34;;;;;;;7.40;3.78;;;;;;;22.14;47.29;102385.88;5055616;28;20040;-77
2023/09/24 07:23:59;;;;;;;6.97;4.47;;;;;;;22.01;48.11;102383.34;5054856;28;20025;-77
2023/09/24 07:26:28;;;;;;;5.13;4.20;;;;;;;21.65;48.68;102381.38;5056849;28;20036;-76
2023/09/24 07:28:53;;;;;;;6.72;4.00;;;;;;;22.22;47.95;102388.25;5064044;28;20044;-77
2023/09/24 07:34:12;;;;;;;5.53;3.78;;;;;;;22.41;46.04;102393.63;5872087;22;20056;-77
2023/09/24 07:39:31;;;;;;;5.20;3.93;;;;;;;21.55;48.70;102391.22;5219881;22;20064;-77
2023/09/24 07:42:09;;;;;;;4.72;3.83;;;;;;;21.10;49.58;102392.47;5049760;28;20048;-78
2023/09/24 07:48:13;;;;;;;6.00;4.10;;;;;;;21.47;48.93;102404.16;5047186;28;20040;-76
2023/09/24 07:50:39;;;;;;;5.88;4.07;;;;;;;21.75;48.88;102397.25;5050581;28;20036;-76
2023/09/24 07:53:29;;;;;;;6.97;3.80;;;;;;;22.78;46.18;102398.84;5048524;28;20025;-76
2023/09/24 07:56:02;;;;;;;5.25;3.72;;;;;;;22.76;47.59;102398.28;5046150;28;20112;-76
2023/09/24 07:58:30;;;;;;;6.03;3.85;;;;;;;22.56;47.01;102407.72;5041097;28;21018;-76
2023/09/24 08:00:57;;;;;;;4.78;3.50;;;;;;;23.16;46.36;102408.41;5050942;28;20035;-76
2023/09/24 08:03:22;;;;;;;5.35;3.75;;;;;;;23.39;44.17;102403.94;5015049;28;20031;-77
2023/09/24 08:05:53;;;;;;;4.53;3.60;;;;;;;23.49;43.67;102410.69;5049902;28;20033;-76
2023/09/24 08:08:23;;;;;;;7.00;3.30;;;;;;;23.35;44.03;102413.75;5049873;28;20024;-77
2023/09/24 08:10:48;;;;;;;5.63;3.20;;;;;;;23.28;45.22;102405.66;5031814;28;20048;-76
2023/09/24 08:13:18;;;;;;;5.32;3.50;;;;;;;22.46;47.26;102418.44;5027484;28;20025;-77
2023/09/24 08:15:48;;;;;;;4.60;2.95;;;;;;;23.29;44.57;102409.25;5049216;28;20075;-76
2023/09/24 08:18:15;;;;;;;4.82;3.30;;;;;;;22.88;45.21;102409.19;5107161;22;20126;-76
2023/09/24 08:20:40;;;;;;;4.18;3.00;;;;;;;23.09;45.19;102410.47;5048584;28;20124;-76
2023/09/24 08:23:13;;;;;;;3.80;2.85;;;;;;;22.06;47.57;102410.91;5049981;28;20025;-76
2023/09/24 08:25:40;;;;;;;3.53;2.95;;;;;;;23.25;44.19;102414.38;5044703;28;20029;-76
2023/09/24 08:28:05;;;;;;;4.55;3.03;;;;;;;23.39;43.37;102414.94;5045776;28;20032;-77
2023/09/24 08:30:31;;;;;;;3.90;2.85;;;;;;;23.53;43.25;102420.97;5051760;28;20385;-77
2023/09/24 08:32:57;;;;;;;4.15;2.90;;;;;;;22.60;45.27;102423.69;5052125;28;20037;-77
2023/09/24 08:35:22;;;;;;;5.82;2.97;;;;;;;23.76;43.87;102421.91;5053047;28;20112;-76
2023/09/24 08:37:48;;;;;;;4.75;2.75;;;;;;;24.53;41.26;102412.16;5051044;28;20072;-77
2023/09/24 08:40:15;;;;;;;5.25;2.80;;;;;;;24.75;41.24;102414.13;5066390;22;20026;-77
2023/09/24 08:42:49;;;;;;;4.47;2.80;;;;;;;24.90;40.19;102410.72;5034390;28;20410;-77
2023/09/24 08:45:16;;;;;;;3.75;2.60;;;;;;;24.69;42.11;102412.38;5050626;28;20052;-77
2023/09/24 08:47:48;;;;;;;5.65;2.70;;;;;;;24.95;40.66;102410.81;5049621;28;20381;-77
2023/09/24 08:50:15;;;;;;;3.80;2.70;;;;;;;25.08;39.85;102417.00;5039272;28;20040;-76
2023/09/24 08:52:42;;;;;;;3.47;2.33;;;;;;;25.40;38.99;102413.53;5039857;28;20498;-76
2023/09/24 08:55:11;;;;;;;4.07;2.35;;;;;;;24.67;39.93;102411.78;5041814;28;20025;-77
2023/09/24 08:57:37;;;;;;;4.43;2.70;;;;;;;23.73;42.52;102415.00;5029970;28;20030;-76
2023/09/24 09:00:06;;;;;;;3.30;2.40;;;;;;;24.81;40.43;102412.28;5035140;28;20029;-77
2023/09/24 09:02:34;;;;;;;5.18;2.47;;;;;;;24.16;41.33;102411.88;5053255;28;20101;-76
2023/09/24 09:05:00;;;;;;;3.20;2.17;;;;;;;24.48;40.75;102411.25;5035938;28;20045;-77
2023/09/24 09:07:25;;;;;;;3.85;2.17;;;;;;;24.70;41.18;102424.22;5042868;28;20079;-76
2023/09/24 09:09:55;;;;;;;3.45;2.13;;;;;;;25.26;39.84;102415.84;5036069;28;20025;-76
2023/09/24 09:12:22;;;;;;;3.00;2.03;;;;;;;25.57;38.40;102408.75;5046647;28;20031;-77
2023/09/24 09:14:47;;;;;;;3.25;1.90;;;;;;;24.83;38.89;102405.41;5035848;28;20124;-77
2023/09/24 09:17:12;;;;;;;4.60;1.90;;;;;;;24.68;38.91;102400.53;5054137;28;20025;-77
2023/09/24 09:19:55;;;;;;;4.60;2.30;;;;;;;23.60;41.58;102404.31;5053744;28;20029;-77
2023/09/24 09:22:24;;;;;;;5.55;2.00;;;;;;;23.81;42.31;102399.19;5040206;28;20041;-76
2023/09/24 09:25:09;;;;;;;4.45;1.95;;;;;;;24.51;40.75;102394.22;5045451;28;20049;-76
2023/09/24 09:27:35;;;;;;;2.97;1.80;;;;;;;24.57;40.70;102387.69;5033696;28;20141;-77
2023/09/24 09:30:19;;;;;;;5.50;1.85;;;;;;;24.88;39.52;102385.38;5034286;28;20052;-76
2023/09/24 09:32:45;;;;;;;6.03;2.00;;;;;;;24.64;39.06;102390.25;5050224;28;20036;-77
2023/09/24 09:35:14;;;;;;;3.33;2.00;;;;;;;24.94;39.24;102389.84;5041364;28;20481;-76
2023/09/24 09:37:42;;;;;;;3.33;1.90;;;;;;;24.95;39.85;102386.00;5059412;22;20049;-77
2023/09/24 09:40:09;;;;;;;4.60;1.80;;;;;;;24.57;38.96;102387.69;5054230;28;20041;-76
2023/09/24 09:42:36;;;;;;;4.75;1.70;;;;;;;24.25;40.34;102377.34;5053727;28;20029;-77
2023/09/24 09:45:10;;;;;;;4.25;2.03;;;;;;;24.54;39.93;102368.94;5053799;28;20029;-77
2023/09/24 09:47:54;;;;;;;5.73;1.73;;;;;;;25.02;39.28;102379.47;5053918;28;20029;-77
2023/09/24 09:50:20;;;;;;;3.92;1.98;;;;;;;25.07;39.47;102382.28;5052801;28;20474;-77
2023/09/24 09:52:46;;;;;;;2.75;1.50;;;;;;;25.63;38.40;102379.31;5053596;28;20053;-77
2023/09/24 09:55:14;;;;;;;4.72;1.70;;;;;;;25.77;37.93;102368.63;5051851;28;20052;-76
2023/09/24 09:57:40;;;;;;;4.93;2.03;;;;;;;25.43;39.56;102374.41;5041630;28;20017;-76
2023/09/24 10:00:10;;;;;;;6.95;2.03;;;;;;;26.22;36.47;102368.44;5029283;28;20059;-76
2023/09/24 10:02:36;;;;;;;4.95;1.65;;;;;;;25.73;37.45;102367.53;5029840;28;20080;-77
2023/09/24 10:05:01;;;;;;;2.95;1.60;;;;;;;25.06;39.23;102370.44;5028312;28;20108;-77
2023/09/24 10:07:27;;;;;;;2.83;1.60;;;;;;;26.00;37.89;102370.22;5036296;28;20078;-77
2023/09/24 10:09:53;;;;;;;3.85;1.73;;;;;;;25.68;38.50;102356.44;5055924;28;20028;-77
2023/09/24 10:12:33;;;;;;;3.25;1.48;;;;;;;26.13;37.25;102366.19;5055879;28;20021;-77
2023/09/24 10:15:04;;;;;;;3.28;1.50;;;;;;;26.09;36.86;102358.66;5054933;28;20028;-76
2023/09/24 10:17:30;;;;;;;4.05;1.80;;;;;;;25.02;39.31;102357.44;5045811;28;20025;-78
2023/09/24 10:20:08;;;;;;;4.00;1.67;;;;;;;24.89;38.88;102365.00;5052897;28;20473;-75
2023/09/24 10:22:34;;;;;;;5.18;1.50;;;;;;;24.93;38.98;102355.13;5054554;28;20048;-75
2023/09/24 10:25:01;;;;;;;3.25;1.40;;;;;;;24.96;39.29;102343.59;5054500;28;20111;-75
2023/09/24 10:27:30;;;;;;;3.78;1.70;;;;;;;25.26;37.34;102341.44;5052736;28;20025;-76
2023/09/24 10:29:56;;;;;;;3.28;1.50;;;;;;;24.92;38.44;102342.44;5053567;28;20039;-75
2023/09/24 10:32:22;;;;;;;2.25;1.55;;;;;;;24.14;40.32;102346.09;5055122;28;20088;-76
2023/09/24 10:34:59;;;;;;;3.65;1.60;;;;;;;24.74;39.72;102334.50;5053104;28;20381;-76
2023/09/24 10:37:25;;;;;;;3.53;1.58;;;;;;;25.09;38.63;102338.75;5051809;28;20092;-76
2023/09/24 10:39:59;;;;;;;3.47;1.60;;;;;;;25.05;37.29;102332.13;5053943;28;20033;-76
2023/09/24 10:42:25;;;;;;;2.95;1.60;;;;;;;24.38;39.20;102327.44;5052908;28;20049;-76
2023/09/24 10:45:06;;;;;;;3.33;1.63;;;;;;;24.06;40.48;102324.53;5052499;28;20048;-76
2023/09/24 10:47:34;;;;;;;3.38;1.48;;;;;;;24.18;40.14;102332.69;5052499;28;20020;-76
2023/09/24 10:50:12;;;;;;;3.17;1.70;;;;;;;24.51;37.88;102315.22;5047917;28;20057;-76
2023/09/24 10:52:50;;;;;;;5.22;1.60;;;;;;;25.39;38.05;102335.47;5052468;28;20048;-76
2023/09/24 10:55:16;;;;;;;4.22;1.70;;;;;;;25.67;37.41;102324.44;5057783;28;20091;-76
2023/09/24 10:57:45;;;;;;;4.03;1.60;;;;;;;25.51;36.45;102318.81;5051014;28;20036;-76
2023/09/24 11:00:17;;;;;;;4.18;1.50;;;;;;;25.67;36.23;102321.69;5052477;28;20051;-77
2023/09/24 11:02:43;;;;;;;3.30;1.58;;;;;;;25.60;35.97;102324.66;5051858;28;20040;-75
2023/09/24 11:05:09;;;;;;;3.63;1.30;;;;;;;24.93;37.71;102329.50;5050562;28;20503;-75
2023/09/24 11:07:34;;;;;;;3.88;1.20;;;;;;;25.97;35.04;102320.22;5051608;28;20036;-75
2023/09/24 11:10:00;;;;;;;4.93;1.60;;;;;;;25.88;34.68;102326.25;5051217;28;20021;-76
2023/09/24 11:12:25;;;;;;;4.97;1.38;;;;;;;26.04;34.56;102315.31;5051727;28;20021;-76
2023/09/24 11:14:57;;;;;;;2.38;1.30;;;;;;;25.47;35.34;102320.41;5052894;28;20031;-76
2023/09/24 11:17:23;;;;;;;2.72;1.45;;;;;;;25.90;34.98;102316.88;5051942;28;20036;-76
2023/09/24 11:19:49;;;;;;;5.30;1.65;;;;;;;25.76;35.96;102320.13;5049727;28;20020;-76
2023/09/24 11:22:21;;;;;;;2.88;1.20;;;;;;;25.80;36.24;102321.22;5047479;28;20030;-76
2023/09/24 11:24:50;;;;;;;2.40;1.38;;;;;;;25.66;34.66;102322.78;5047396;28;20017;-78
2023/09/24 11:27:16;;;;;;;2.95;1.27;;;;;;;25.85;35.09;102329.53;5043716;28;20519;-76
2023/09/24 11:29:56;;;;;;;3.90;1.45;;;;;;;25.58;34.93;102324.94;5051997;28;20024;-77
2023/09/24 11:32:23;;;;;;;3.08;1.40;;;;;;;26.31;34.05;102333.72;5052336;28;20021;-76
2023/09/24 11:34:49;;;;;;;3.72;1.65;;;;;;;26.70;32.96;102330.56;5051320;28;20067;-76
2023/09/24 11:37:15;;;;;;;2.47;1.30;;;;;;;26.56;32.98;102327.50;5052282;28;20481;-76
2023/09/24 11:39:43;;;;;;;2.85;1.40;;;;;;;26.16;33.95;102320.66;5052100;28;20029;-76
2023/09/24 11:42:18;;;;;;;4.05;1.67;;;;;;;26.43;33.50;102315.00;5052386;28;20028;-76
2023/09/24 11:44:47;;;;;;;2.33;1.40;;;;;;;26.46;34.36;102319.16;5044667;28;20032;-76
2023/09/24 11:47:18;;;;;;;1.67;1.50;;;;;;;26.15;33.21;102317.06;5052529;28;20486;-77
2023/09/24 11:49:43;;;;;;;1.63;1.33;;;;;;;26.24;33.48;102311.88;5054386;28;20469;-76
2023/09/24 11:52:09;;;;;;;3.83;1.45;;;;;;;26.45;32.84;102304.53;5057447;28;20050;-76
2023/09/24 11:54:35;;;;;;;3.10;1.65;;;;;;;26.03;33.79;102303.44;5069423;28;20028;-76
2023/09/24 11:57:00;;;;;;;2.97;1.40;;;;;;;26.24;33.17;102311.88;5065828;28;20043;-76
2023/09/24 11:59:31;;;;;;;2.15;1.23;;;;;;;26.54;32.31;102312.28;5053617;28;20028;-76
2023/09/24 12:01:57;;;;;;;2.95;1.50;;;;;;;26.30;32.44;102304.44;5053141;28;20029;-76